createdAt,value
2019-03-22T00:01:21.950Z,18.35
2019-03-22T00:03:51.715Z,16.48
2019-03-22T00:06:21.423Z,17.67
2019-03-22T00:08:51.214Z,19.82
2019-03-22T00:11:20.944Z,15.00
2019-03-22T00:13:50.669Z,16.97
2019-03-22T00:16:20.500Z,17.73
2019-03-22T00:18:50.197Z,20.52
2019-03-22T00:21:20.002Z,19.52
2019-03-22T00:23:49.736Z,16.67
2019-03-22T00:26:19.508Z,17.40
2019-03-22T00:28:49.196Z,20.40
2019-03-22T00:31:19.323Z,15.50
2019-03-22T00:33:49.175Z,16.37
2019-03-22T00:36:18.902Z,15.40
2019-03-22T00:38:48.656Z,18.42
2019-03-22T00:41:18.458Z,19.65
2019-03-22T00:43:48.188Z,16.05
2019-03-22T00:46:17.899Z,18.30
2019-03-22T00:48:47.622Z,20.70
2019-03-22T00:51:17.323Z,18.48
2019-03-22T00:53:47.131Z,14.93
2019-03-22T00:56:16.910Z,13.95
2019-03-22T00:58:46.816Z,10.45
2019-03-22T01:01:16.590Z,11.15
2019-03-22T01:03:46.309Z,12.90
2019-03-22T01:06:16.116Z,14.00
2019-03-22T01:08:45.902Z,19.77
2019-03-22T01:11:15.577Z,17.42
2019-03-22T01:13:46.661Z,19.52
2019-03-22T01:16:16.429Z,16.45
2019-03-22T01:18:46.206Z,15.95
2019-03-22T01:21:16.038Z,19.05
2019-03-22T01:23:45.736Z,14.23
2019-03-22T01:26:15.443Z,16.60
2019-03-22T01:28:45.157Z,16.55
2019-03-22T01:31:14.905Z,20.65
2019-03-22T01:33:44.805Z,22.52
2019-03-22T01:36:14.541Z,18.20
2019-03-22T01:38:44.362Z,17.77
2019-03-22T01:41:14.077Z,19.75
2019-03-22T01:43:43.851Z,17.52
2019-03-22T01:46:13.525Z,15.60
2019-03-22T01:48:43.349Z,19.17
2019-03-22T01:51:13.152Z,16.35
2019-03-22T01:53:42.866Z,16.93
2019-03-22T01:56:12.628Z,19.07
2019-03-22T01:58:42.348Z,16.77
2019-03-22T02:01:12.103Z,20.30
2019-03-22T02:03:41.809Z,14.85
2019-03-22T02:06:11.618Z,18.50
2019-03-22T02:08:41.346Z,20.80
2019-03-22T02:11:11.127Z,16.10
2019-03-22T02:13:40.902Z,18.92
2019-03-22T02:16:10.994Z,22.32
2019-03-22T02:18:40.733Z,17.35
2019-03-22T02:21:10.462Z,16.82
2019-03-22T02:23:40.168Z,16.60
2019-03-22T02:26:09.932Z,16.97
2019-03-22T02:28:39.636Z,18.05
2019-03-22T02:31:09.489Z,17.20
2019-03-22T02:33:39.239Z,18.45
2019-03-22T02:36:09.083Z,19.30
2019-03-22T02:38:38.763Z,18.17
2019-03-22T02:41:08.524Z,16.37
2019-03-22T02:43:38.244Z,18.50
2019-03-22T02:46:07.967Z,14.73
2019-03-22T02:48:37.630Z,18.30
2019-03-22T02:51:07.585Z,14.90
2019-03-22T02:53:37.338Z,17.50
2019-03-22T02:56:07.484Z,19.10
2019-03-22T02:58:37.233Z,15.25
2019-03-22T03:01:07.010Z,18.05
2019-03-22T03:03:36.768Z,18.07
2019-03-22T03:06:06.658Z,17.25
2019-03-22T03:08:36.382Z,19.02
2019-03-22T03:11:06.161Z,22.75
2019-03-22T03:13:35.846Z,13.72
2019-03-22T03:16:05.774Z,14.58
2019-03-22T03:18:35.456Z,17.32
2019-03-22T03:21:05.215Z,13.25
2019-03-22T03:23:34.903Z,16.10
2019-03-22T03:26:04.718Z,14.98
2019-03-22T03:28:37.324Z,13.50
2019-03-22T03:31:05.990Z,12.03
2019-03-22T03:33:35.663Z,16.27
2019-03-22T03:36:05.886Z,18.87
2019-03-22T03:38:35.598Z,19.12
2019-03-22T03:41:05.543Z,15.63
2019-03-22T03:43:35.399Z,15.75
2019-03-22T03:46:05.188Z,17.23
2019-03-22T03:48:35.004Z,17.70
2019-03-22T03:51:04.670Z,17.27
2019-03-22T03:53:34.355Z,15.13
2019-03-22T03:56:04.099Z,15.28
2019-03-22T03:58:33.792Z,16.90
2019-03-22T04:01:03.775Z,15.98
2019-03-22T04:03:33.492Z,17.45
2019-03-22T04:06:03.279Z,18.30
2019-03-22T04:08:33.161Z,17.27
2019-03-22T04:11:02.853Z,14.87
2019-03-22T04:13:32.652Z,15.53
2019-03-22T04:16:02.402Z,19.17
2019-03-22T04:18:32.211Z,14.40
2019-03-22T04:21:02.095Z,15.13
2019-03-22T04:23:31.956Z,17.05
2019-03-22T04:26:01.675Z,22.30
2019-03-22T04:28:31.370Z,18.30
2019-03-22T04:31:01.111Z,20.02
2019-03-22T04:33:30.986Z,18.42
2019-03-22T04:36:00.766Z,16.70
2019-03-22T04:38:30.446Z,20.62
2019-03-22T04:41:00.183Z,19.00
2019-03-22T04:43:29.976Z,15.35
2019-03-22T04:46:00.081Z,18.20
2019-03-22T04:48:33.151Z,18.62
2019-03-22T04:51:05.702Z,17.57
2019-03-22T04:53:42.765Z,16.82
2019-03-22T04:56:15.416Z,15.50
2019-03-22T04:58:48.132Z,21.45
2019-03-22T05:01:18.609Z,15.35
2019-03-22T05:03:48.392Z,20.88
2019-03-22T05:06:19.189Z,20.27
2019-03-22T05:08:49.551Z,16.00
2019-03-22T05:11:20.021Z,14.23
2019-03-22T05:13:53.040Z,15.18
2019-03-22T05:16:23.871Z,16.67
2019-03-22T05:18:54.483Z,12.05
2019-03-22T05:21:27.085Z,17.67
2019-03-22T05:23:59.916Z,15.72
2019-03-22T05:26:34.121Z,20.90
2019-03-22T05:29:04.845Z,16.67
2019-03-22T05:31:57.690Z,14.23
2019-03-22T05:34:27.631Z,15.90
2019-03-22T05:36:57.499Z,17.57
2019-03-22T05:39:27.170Z,15.23
2019-03-22T05:41:57.003Z,18.45
2019-03-22T05:44:26.790Z,13.78
2019-03-22T05:46:56.992Z,13.95
2019-03-22T05:49:26.759Z,16.60
2019-03-22T05:51:56.591Z,16.35
2019-03-22T05:54:26.331Z,14.58
2019-03-22T05:56:56.155Z,15.78
2019-03-22T05:59:25.949Z,12.68
2019-03-22T06:01:55.739Z,16.23
2019-03-22T06:04:25.448Z,17.98
2019-03-22T06:06:55.194Z,19.10
2019-03-22T06:09:24.883Z,20.57
2019-03-22T06:11:54.591Z,20.75
2019-03-22T06:14:24.279Z,18.12
2019-03-22T06:16:53.972Z,18.82
2019-03-22T06:19:23.709Z,16.60
2019-03-22T06:21:53.430Z,14.47
2019-03-22T06:24:23.091Z,18.80
2019-03-22T06:26:52.844Z,18.62
2019-03-22T06:29:24.534Z,18.73
2019-03-22T06:31:54.273Z,14.63
2019-03-22T06:34:23.956Z,17.60
2019-03-22T06:36:53.709Z,17.52
2019-03-22T06:39:23.371Z,13.43
2019-03-22T06:41:53.035Z,13.28
2019-03-22T06:44:22.730Z,22.25
2019-03-22T06:46:52.424Z,15.48
2019-03-22T06:49:22.103Z,16.65
2019-03-22T06:51:51.805Z,17.95
2019-03-22T06:54:31.152Z,14.05
2019-03-22T06:56:52.882Z,17.95
2019-03-22T06:59:22.577Z,20.30
2019-03-22T07:01:52.281Z,15.15
2019-03-22T07:04:21.982Z,20.23
2019-03-22T07:06:51.697Z,21.70
2019-03-22T07:09:21.479Z,18.52
2019-03-22T07:11:51.176Z,16.40
2019-03-22T07:14:20.941Z,14.15
2019-03-22T07:16:50.639Z,18.20
2019-03-22T07:19:20.306Z,17.33
2019-03-22T07:21:50.156Z,14.07
2019-03-22T07:24:19.853Z,19.57
2019-03-22T07:26:49.546Z,16.03
2019-03-22T07:29:19.365Z,15.50
2019-03-22T07:31:49.121Z,18.87
2019-03-22T07:34:18.915Z,14.80
2019-03-22T07:36:48.611Z,13.63
2019-03-22T07:39:18.269Z,18.97
2019-03-22T07:41:48.035Z,16.17
2019-03-22T07:44:17.819Z,18.67
2019-03-22T07:46:47.481Z,14.10
2019-03-22T07:49:17.301Z,16.70
2019-03-22T07:51:47.158Z,14.20
2019-03-22T07:54:17.464Z,16.20
2019-03-22T07:56:47.262Z,13.47
2019-03-22T07:59:16.986Z,13.90
2019-03-22T08:01:46.771Z,14.10
2019-03-22T08:04:16.582Z,15.20
2019-03-22T08:06:46.396Z,15.23
2019-03-22T08:09:16.231Z,14.50
2019-03-22T08:11:46.198Z,16.27
2019-03-22T08:14:16.530Z,13.23
2019-03-22T08:16:48.275Z,16.00
2019-03-22T08:19:20.232Z,15.50
2019-03-22T08:21:50.326Z,15.40
2019-03-22T08:24:20.632Z,13.13
2019-03-22T08:26:50.460Z,14.93
2019-03-22T08:29:20.334Z,17.07
2019-03-22T08:31:50.232Z,14.80
2019-03-22T08:34:20.144Z,13.60
2019-03-22T08:36:49.981Z,14.83
2019-03-22T08:39:19.778Z,15.70
2019-03-22T08:41:49.579Z,15.93
2019-03-22T08:44:19.435Z,16.10
2019-03-22T08:46:49.373Z,14.83
2019-03-22T08:49:19.323Z,15.33
2019-03-22T08:51:49.824Z,15.43
2019-03-22T08:54:19.686Z,22.37
2019-03-22T08:56:51.131Z,16.53
2019-03-22T08:59:21.013Z,14.40
2019-03-22T09:01:50.876Z,16.40
2019-03-22T09:04:20.685Z,12.87
2019-03-22T09:06:50.540Z,13.27
2019-03-22T09:09:20.416Z,14.73
2019-03-22T09:11:50.162Z,15.27
2019-03-22T09:20:14.006Z,16.90
2019-03-22T09:22:43.756Z,16.43
2019-03-22T09:25:13.557Z,12.80
2019-03-22T09:27:43.361Z,14.77
2019-03-22T09:30:13.839Z,13.40
2019-03-22T09:32:43.511Z,11.53
2019-03-22T09:35:13.324Z,14.00
2019-03-22T09:37:43.058Z,11.50
2019-03-22T09:40:12.828Z,13.10
2019-03-22T09:42:42.502Z,13.50
2019-03-22T09:45:14.283Z,15.70
2019-03-22T09:47:43.689Z,15.83
2019-03-22T09:50:15.803Z,13.17
2019-03-22T09:52:45.752Z,15.13
2019-03-22T09:55:15.564Z,18.80
2019-03-22T09:57:45.380Z,12.40
2019-03-22T10:00:34.143Z,14.93
2019-03-22T10:03:04.480Z,13.53
2019-03-22T10:05:34.279Z,13.43
2019-03-22T10:08:04.139Z,10.20
2019-03-22T10:10:36.017Z,13.93
2019-03-22T10:13:05.909Z,12.93
2019-03-22T10:15:35.665Z,14.87
2019-03-22T10:18:06.094Z,10.83
2019-03-22T10:20:35.520Z,12.47
2019-03-22T10:23:07.378Z,15.20
2019-03-22T10:25:37.069Z,13.47
2019-03-22T10:28:06.751Z,13.17
2019-03-22T10:30:36.561Z,11.63
2019-03-22T10:33:06.256Z,13.80
2019-03-22T10:35:35.992Z,16.50
2019-03-22T10:38:15.318Z,11.57
2019-03-22T10:40:37.210Z,12.37
2019-03-22T10:43:06.891Z,11.07
2019-03-22T10:45:36.618Z,11.23
2019-03-22T10:48:06.380Z,15.70
2019-03-22T10:50:36.126Z,12.63
2019-03-22T10:53:05.844Z,14.17
2019-03-22T10:55:35.800Z,12.33
2019-03-22T10:58:19.909Z,11.80
2019-03-22T11:00:36.985Z,13.00
2019-03-22T11:03:06.818Z,13.67
2019-03-22T11:05:36.631Z,9.13
2019-03-22T11:08:06.484Z,9.47
2019-03-22T11:10:36.630Z,10.27
2019-03-22T11:13:06.544Z,8.77
2019-03-22T11:15:36.870Z,15.17
2019-03-22T11:18:06.832Z,10.50
2019-03-22T11:20:36.514Z,9.90
2019-03-22T11:23:06.239Z,11.40
2019-03-22T11:25:35.992Z,7.43
2019-03-22T11:28:06.054Z,9.40
2019-03-22T11:30:35.826Z,6.87
2019-03-22T11:33:05.759Z,14.23
2019-03-22T11:35:37.124Z,8.30
2019-03-22T11:38:07.166Z,8.37
2019-03-22T11:40:37.244Z,7.00
2019-03-22T11:43:08.949Z,10.47
2019-03-22T11:45:38.877Z,8.90
2019-03-22T11:48:08.646Z,12.70
2019-03-22T11:50:38.438Z,8.57
2019-03-22T11:53:08.150Z,9.10
2019-03-22T11:55:37.883Z,6.00
2019-03-22T11:58:07.699Z,8.30
2019-03-22T12:00:39.806Z,11.40
2019-03-22T12:03:12.025Z,8.87
2019-03-22T12:05:41.730Z,8.03
2019-03-22T12:08:11.442Z,6.97
2019-03-22T12:10:41.254Z,8.17
2019-03-22T12:13:11.038Z,6.87
2019-03-22T12:15:40.777Z,5.67
2019-03-22T12:18:10.486Z,6.80
2019-03-22T12:20:40.294Z,7.27
2019-03-22T12:23:10.037Z,7.80
2019-03-22T12:25:39.710Z,7.60
2019-03-22T12:28:09.506Z,9.83
2019-03-22T12:30:39.216Z,7.70
2019-03-22T12:33:09.345Z,6.10
2019-03-22T12:35:39.179Z,5.30
2019-03-22T12:38:08.962Z,6.80
2019-03-22T12:40:38.728Z,5.17
2019-03-22T12:43:10.500Z,8.27
2019-03-22T12:45:40.253Z,6.57
2019-03-22T12:48:10.001Z,6.50
2019-03-22T12:50:39.811Z,6.43
2019-03-22T12:53:09.616Z,7.17
2019-03-22T12:55:39.419Z,4.77
2019-03-22T12:58:09.237Z,5.80
2019-03-22T13:00:39.015Z,6.37
2019-03-22T13:03:08.771Z,7.70
2019-03-22T13:05:38.541Z,5.80
2019-03-22T13:08:08.287Z,7.30
2019-03-22T13:10:38.104Z,5.80
2019-03-22T13:13:07.914Z,6.87
2019-03-22T13:15:37.786Z,4.57
2019-03-22T13:18:07.501Z,4.83
2019-03-22T13:20:37.283Z,4.87
2019-03-22T13:23:07.205Z,7.03
2019-03-22T13:25:36.915Z,4.77
2019-03-22T13:28:06.744Z,5.40
2019-03-22T13:30:37.383Z,4.77
2019-03-22T13:33:07.346Z,5.80
2019-03-22T13:35:37.128Z,8.97
2019-03-22T13:38:06.880Z,5.07
2019-03-22T13:40:36.684Z,6.53
2019-03-22T13:43:06.409Z,5.90
2019-03-22T13:45:36.227Z,4.90
2019-03-22T13:48:06.107Z,5.00
2019-03-22T13:50:35.949Z,4.13
2019-03-22T13:53:05.989Z,5.73
2019-03-22T13:55:35.858Z,5.60
2019-03-22T13:58:05.707Z,6.13
2019-03-22T14:00:35.478Z,5.87
2019-03-22T14:03:05.473Z,4.10
2019-03-22T14:05:35.325Z,3.63
2019-03-22T14:08:05.054Z,5.40
2019-03-22T14:10:35.404Z,3.87
2019-03-22T14:13:06.275Z,6.97
2019-03-22T14:15:36.156Z,3.50
2019-03-22T14:18:06.510Z,5.93
2019-03-22T14:20:36.267Z,5.10
2019-03-22T14:23:06.278Z,8.43
2019-03-22T14:25:37.364Z,3.80
2019-03-22T14:28:07.169Z,5.57
2019-03-22T14:30:37.061Z,5.00
2019-03-22T14:33:13.436Z,4.33
2019-03-22T14:35:38.731Z,4.07
2019-03-22T14:38:08.558Z,4.30
2019-03-22T14:40:38.626Z,4.23
2019-03-22T14:43:08.450Z,5.27
2019-03-22T14:45:38.158Z,7.10
2019-03-22T14:48:07.891Z,7.00
2019-03-22T14:50:37.686Z,4.87
2019-03-22T14:53:07.514Z,8.03
2019-03-22T14:55:37.341Z,7.70
2019-03-22T14:58:08.047Z,5.73
2019-03-22T15:00:37.733Z,7.20
2019-03-22T15:03:24.349Z,7.03
2019-03-22T15:05:55.364Z,8.73
2019-03-22T15:08:25.138Z,8.93
2019-03-22T15:10:55.007Z,20.63
2019-03-22T15:13:35.755Z,5.40
2019-03-22T15:16:28.043Z,12.33
2019-03-22T15:19:22.598Z,10.73
2019-03-22T15:22:11.496Z,14.23
2019-03-22T15:25:00.276Z,7.40
2019-03-22T15:27:46.480Z,5.70
2019-03-22T15:30:35.090Z,7.13
2019-03-22T15:33:34.064Z,6.77
2019-03-22T15:36:29.709Z,7.13
2019-03-22T15:39:15.393Z,7.97
2019-03-22T15:41:46.844Z,8.83
2019-03-22T15:44:16.644Z,9.50
2019-03-22T15:46:46.608Z,9.53
2019-03-22T15:49:16.444Z,11.73
2019-03-22T15:51:46.213Z,9.23
2019-03-22T15:54:16.034Z,7.70
2019-03-22T15:56:45.908Z,8.27
2019-03-22T15:59:15.790Z,9.10
2019-03-22T16:01:45.606Z,11.10
2019-03-22T16:04:15.430Z,8.20
2019-03-22T16:06:45.196Z,7.63
2019-03-22T16:09:15.003Z,11.50
2019-03-22T16:11:45.914Z,10.80
2019-03-22T16:14:17.139Z,8.67
2019-03-22T16:16:46.853Z,7.23
2019-03-22T16:19:16.577Z,5.20
2019-03-22T16:21:46.458Z,6.00
2019-03-22T16:24:16.291Z,13.07
2019-03-22T16:26:47.228Z,7.30
2019-03-22T16:29:17.608Z,5.97
2019-03-22T16:31:47.453Z,9.43
2019-03-22T16:37:16.706Z,8.50
2019-03-22T16:39:47.512Z,10.13
2019-03-22T16:42:23.325Z,7.37
2019-03-22T16:44:53.723Z,8.43
2019-03-22T16:47:31.361Z,6.77
2019-03-22T16:50:01.128Z,6.10
2019-03-22T16:52:32.074Z,6.50
2019-03-22T16:55:01.820Z,9.00
2019-03-22T16:57:43.494Z,7.43
2019-03-22T17:00:13.482Z,6.70
2019-03-22T17:02:43.376Z,5.80
2019-03-22T17:05:15.261Z,4.97
2019-03-22T17:07:44.833Z,9.57
2019-03-22T17:10:14.880Z,7.00
2019-03-22T17:12:45.913Z,6.10
2019-03-22T17:15:15.696Z,6.23
2019-03-22T17:17:45.438Z,4.30
2019-03-22T17:20:17.972Z,8.03
2019-03-22T17:22:47.776Z,5.42
2019-03-22T17:25:17.502Z,6.43
2019-03-22T17:27:48.318Z,5.50
2019-03-22T17:30:18.708Z,6.40
2019-03-22T17:32:54.082Z,6.27
2019-03-22T17:35:23.795Z,5.17
2019-03-22T17:37:53.639Z,6.43
2019-03-22T17:40:23.753Z,5.13
2019-03-22T17:42:53.861Z,7.20
2019-03-22T17:45:23.625Z,5.50
2019-03-22T17:47:55.006Z,7.10
2019-03-22T17:50:33.153Z,5.63
2019-03-22T17:53:03.054Z,4.57
2019-03-22T17:55:34.232Z,6.97
2019-03-22T17:58:04.178Z,6.50
2019-03-22T18:00:34.029Z,9.20
2019-03-22T18:03:03.860Z,4.10
2019-03-22T18:05:33.852Z,8.03
2019-03-22T18:08:06.402Z,6.10
2019-03-22T18:10:40.852Z,4.00
2019-03-22T18:13:15.423Z,14.30
2019-03-22T18:15:46.006Z,9.60
2019-03-22T18:18:15.924Z,5.17
2019-03-22T18:20:45.872Z,5.13
2019-03-22T18:23:18.432Z,4.70
2019-03-22T18:25:49.514Z,5.20
2019-03-22T18:28:19.229Z,6.70
2019-03-22T18:30:49.688Z,3.67
2019-03-22T18:33:19.914Z,5.43
2019-03-22T18:35:49.800Z,4.97
2019-03-22T18:38:21.727Z,5.63
2019-03-22T18:40:52.283Z,4.70
2019-03-22T18:43:23.948Z,8.83
2019-03-22T18:45:54.572Z,5.47
2019-03-22T18:48:26.193Z,4.33
2019-03-22T18:50:57.261Z,4.87
2019-03-22T18:53:27.320Z,4.73
2019-03-22T18:55:57.339Z,3.60
2019-03-22T18:58:27.214Z,6.57
2019-03-22T19:00:58.409Z,5.60
2019-03-22T19:03:28.302Z,4.33
2019-03-22T19:06:00.429Z,6.60
2019-03-22T19:08:30.972Z,5.53
2019-03-22T19:11:00.989Z,5.60
2019-03-22T19:13:32.173Z,7.67
2019-03-22T19:16:03.619Z,5.37
2019-03-22T19:18:33.536Z,7.30
2019-03-22T19:21:03.967Z,7.63
2019-03-22T19:23:34.305Z,4.60
2019-03-22T19:26:04.986Z,8.23
2019-03-22T19:28:39.220Z,9.90
2019-03-22T19:31:10.962Z,7.40
2019-03-22T19:33:42.810Z,8.50
2019-03-22T19:36:15.508Z,5.60
2019-03-22T19:38:45.282Z,6.43
2019-03-22T19:41:15.036Z,7.17
2019-03-22T19:43:45.200Z,6.07
2019-03-22T19:46:19.668Z,5.93
2019-03-22T19:48:52.302Z,7.90
2019-03-22T19:51:22.132Z,6.63
2019-03-22T19:53:53.400Z,4.70
2019-03-22T19:56:23.436Z,5.13
2019-03-22T19:58:54.749Z,6.10
2019-03-22T20:01:25.216Z,7.17
2019-03-22T20:03:58.063Z,7.03
2019-03-22T20:06:28.474Z,6.70
2019-03-22T20:08:58.553Z,6.93
2019-03-22T20:11:28.653Z,7.33
2019-03-22T20:13:58.677Z,4.80
2019-03-22T20:16:31.553Z,7.13
2019-03-22T20:19:04.285Z,9.60
2019-03-22T20:21:38.899Z,13.37
2019-03-22T20:24:12.118Z,7.23
2019-03-22T20:26:46.495Z,10.80
2019-03-22T20:29:24.052Z,6.40
2019-03-22T20:31:57.513Z,8.03
2019-03-22T20:34:31.510Z,7.97
2019-03-22T20:37:05.118Z,7.47
2019-03-22T20:39:34.932Z,5.87
2019-03-22T20:42:10.013Z,5.60
2019-03-22T20:44:39.941Z,6.43
2019-03-22T20:47:10.427Z,6.23
2019-03-22T20:49:40.551Z,8.87
2019-03-22T20:52:14.029Z,4.93
2019-03-22T20:54:44.975Z,8.00
2019-03-22T20:57:14.737Z,5.90
2019-03-22T20:59:46.524Z,6.20
2019-03-22T21:02:17.167Z,11.10
2019-03-22T21:04:47.082Z,5.73
2019-03-22T21:07:16.960Z,8.40
2019-03-22T21:09:46.874Z,6.77
2019-03-22T21:12:16.572Z,7.50
2019-03-22T21:14:46.448Z,5.33
2019-03-22T21:17:16.339Z,7.43
2019-03-22T21:19:46.309Z,6.60
2019-03-22T21:22:16.184Z,7.43
2019-03-22T21:24:46.124Z,8.13
2019-03-22T21:27:16.366Z,7.53
2019-03-22T21:29:46.190Z,5.07
2019-03-22T21:32:16.010Z,7.77
2019-03-22T21:34:45.833Z,7.70
2019-03-22T21:37:15.593Z,8.27
2019-03-22T21:39:45.377Z,11.13
2019-03-22T21:42:15.053Z,7.57
2019-03-22T21:44:44.911Z,13.40
2019-03-22T21:47:14.819Z,10.47
2019-03-22T21:49:44.703Z,10.20
2019-03-22T21:52:14.840Z,10.83
2019-03-22T21:54:44.895Z,11.00
2019-03-22T21:57:17.616Z,7.07
2019-03-22T21:59:48.471Z,7.97
2019-03-22T22:02:18.327Z,9.40
2019-03-22T22:04:48.090Z,9.80
2019-03-22T22:07:17.865Z,6.87
2019-03-22T22:09:47.692Z,8.30
2019-03-22T22:12:17.350Z,6.90
2019-03-22T22:14:47.152Z,9.50
2019-03-22T22:17:17.863Z,8.77
2019-03-22T22:19:47.717Z,8.53
2019-03-22T22:22:17.469Z,8.90
2019-03-22T22:24:47.263Z,9.37
2019-03-22T22:27:17.011Z,11.20
2019-03-22T22:29:47.926Z,6.77
2019-03-22T22:32:18.144Z,13.60
2019-03-22T22:34:48.938Z,11.00
2019-03-22T22:37:18.719Z,8.73
2019-03-22T22:39:48.910Z,9.60
2019-03-22T22:42:21.619Z,9.40
2019-03-22T22:44:52.083Z,10.00
2019-03-22T22:47:24.710Z,12.50
2019-03-22T22:49:54.480Z,10.33
2019-03-22T22:52:24.266Z,9.77
2019-03-22T22:54:54.049Z,10.10
2019-03-22T22:57:24.807Z,9.63
2019-03-22T22:59:57.390Z,11.18
2019-03-22T23:02:27.186Z,9.57
2019-03-22T23:05:01.313Z,11.60
2019-03-22T23:07:30.539Z,10.88
2019-03-22T23:10:00.406Z,13.77
2019-03-22T23:12:30.166Z,12.70
2019-03-22T23:14:59.961Z,17.80
2019-03-22T23:17:32.112Z,12.93
2019-03-22T23:20:01.971Z,9.93
2019-03-22T23:22:31.819Z,12.75
2019-03-22T23:25:01.647Z,13.28
2019-03-22T23:27:34.896Z,15.68
2019-03-22T23:30:04.914Z,17.75
2019-03-22T23:32:34.787Z,12.40
2019-03-22T23:35:07.400Z,14.20
2019-03-22T23:37:39.428Z,15.68
2019-03-22T23:40:11.879Z,14.10
2019-03-22T23:42:42.756Z,14.63
2019-03-22T23:45:12.762Z,14.73
2019-03-22T23:47:43.236Z,15.23
2019-03-22T23:50:13.100Z,14.13
2019-03-22T23:52:42.983Z,14.83
2019-03-22T23:55:12.960Z,14.65
2019-03-22T23:57:42.786Z,12.37
